createdAt,value
2018-07-19T00:00:00.431Z,1010.95
2018-07-19T00:01:00.557Z,1010.96
2018-07-19T00:02:00.485Z,1010.92
2018-07-19T00:03:00.505Z,1010.92
2018-07-19T00:04:00.531Z,1010.95
2018-07-19T00:05:00.556Z,1010.88
2018-07-19T00:06:00.580Z,1010.91
2018-07-19T00:07:00.604Z,1010.89
2018-07-19T00:08:00.701Z,1010.92
2018-07-19T00:09:00.659Z,1010.94
2018-07-19T00:10:00.677Z,1010.86
2018-07-19T00:12:00.727Z,1010.91
2018-07-19T00:13:00.749Z,1010.89
2018-07-19T00:14:00.776Z,1010.89
2018-07-19T00:15:00.800Z,1010.89
2018-07-19T00:16:00.824Z,1010.89
2018-07-19T00:17:00.847Z,1010.84
2018-07-19T00:18:00.873Z,1010.89
2018-07-19T00:19:00.955Z,1010.88
2018-07-19T00:20:00.922Z,1010.94
2018-07-19T00:21:00.947Z,1010.92
2018-07-19T00:22:00.971Z,1010.93
2018-07-19T00:23:00.996Z,1010.9
2018-07-19T00:24:01.021Z,1011
2018-07-19T00:25:01.045Z,1010.98
2018-07-19T00:26:01.070Z,1010.95
2018-07-19T00:28:01.117Z,1010.99
2018-07-19T00:29:01.143Z,1010.96
2018-07-19T00:30:01.167Z,1010.96
2018-07-19T00:31:01.226Z,1010.96
2018-07-19T00:32:01.216Z,1010.96
2018-07-19T00:33:01.241Z,1011
2018-07-19T00:34:01.307Z,1010.97
2018-07-19T00:35:01.290Z,1010.99
2018-07-19T00:36:01.313Z,1010.95
2018-07-19T00:37:01.339Z,1010.98
2018-07-19T00:38:01.362Z,1010.96
2018-07-19T00:39:01.388Z,1010.94
2018-07-19T00:40:01.415Z,1010.91
2018-07-19T00:41:01.437Z,1010.89
2018-07-19T00:42:01.459Z,1010.92
2018-07-19T00:44:01.508Z,1010.95
2018-07-19T00:45:01.547Z,1010.92
2018-07-19T00:46:01.556Z,1010.93
2018-07-19T00:47:01.581Z,1010.87
2018-07-19T00:48:01.607Z,1010.92
2018-07-19T00:49:01.631Z,1010.94
2018-07-19T00:50:01.657Z,1010.96
2018-07-19T00:51:01.681Z,1010.9
2018-07-19T00:52:01.704Z,1010.92
2018-07-19T00:53:01.728Z,1010.85
2018-07-19T00:54:01.753Z,1010.91
2018-07-19T00:55:01.777Z,1010.95
2018-07-19T00:56:01.802Z,1010.89
2018-07-19T00:57:01.827Z,1010.84
2018-07-19T00:59:01.874Z,1010.85
2018-07-19T01:00:01.903Z,1010.84
2018-07-19T01:01:01.924Z,1010.84
2018-07-19T01:02:01.948Z,1010.86
2018-07-19T01:03:01.973Z,1010.85
2018-07-19T01:04:01.997Z,1010.84
2018-07-19T01:05:02.021Z,1010.82
2018-07-19T01:06:02.048Z,1010.86
2018-07-19T01:07:02.070Z,1010.86
2018-07-19T01:08:02.094Z,1010.82
2018-07-19T01:09:02.122Z,1010.82
2018-07-19T01:10:02.143Z,1010.78
2018-07-19T01:11:02.166Z,1010.83
2018-07-19T01:12:02.191Z,1010.77
2018-07-19T01:13:02.215Z,1010.79
2018-07-19T01:14:02.241Z,1010.82
2018-07-19T01:15:02.267Z,1010.75
2018-07-19T01:16:02.287Z,1010.75
2018-07-19T01:17:02.312Z,1010.77
2018-07-19T01:18:02.337Z,1010.74
2018-07-19T01:19:02.363Z,1010.76
2018-07-19T01:20:02.385Z,1010.77
2018-07-19T01:21:02.410Z,1010.78
2018-07-19T01:22:02.438Z,1010.77
2018-07-19T01:23:02.462Z,1010.77
2018-07-19T01:24:02.482Z,1010.75
2018-07-19T01:25:02.506Z,1010.78
2018-07-19T01:26:02.535Z,1010.75
2018-07-19T01:27:02.555Z,1010.71
2018-07-19T01:28:02.578Z,1010.76
2018-07-19T01:29:02.603Z,1010.73
2018-07-19T01:31:02.651Z,1010.72
2018-07-19T01:32:02.677Z,1010.73
2018-07-19T01:33:02.700Z,1010.77
2018-07-19T01:34:02.724Z,1010.74
2018-07-19T01:35:02.751Z,1010.73
2018-07-19T01:36:02.773Z,1010.69
2018-07-19T01:37:02.796Z,1010.72
2018-07-19T01:38:02.820Z,1010.76
2018-07-19T01:39:02.845Z,1010.75
2018-07-19T01:40:02.868Z,1010.74
2018-07-19T01:41:02.893Z,1010.74
2018-07-19T01:42:02.922Z,1010.77
2018-07-19T01:43:02.946Z,1010.81
2018-07-19T01:44:02.965Z,1010.77
2018-07-19T01:45:02.990Z,1010.77
2018-07-19T01:47:03.041Z,1010.77
2018-07-19T01:48:03.062Z,1010.77
2018-07-19T01:49:03.085Z,1010.76
2018-07-19T01:50:03.113Z,1010.81
2018-07-19T01:51:03.134Z,1010.79
2018-07-19T01:52:03.159Z,1010.84
2018-07-19T01:53:03.183Z,1010.8
2018-07-19T01:54:03.208Z,1010.82
2018-07-19T01:55:03.232Z,1010.83
2018-07-19T01:56:03.255Z,1010.82
2018-07-19T01:57:03.281Z,1010.83
2018-07-19T01:58:03.308Z,1010.79
2018-07-19T01:59:03.327Z,1010.82
2018-07-19T02:00:03.379Z,1010.88
2018-07-19T02:01:03.378Z,1010.9
2018-07-19T02:03:03.425Z,1010.84
2018-07-19T02:04:03.449Z,1010.82
2018-07-19T02:05:03.474Z,1010.84
2018-07-19T02:06:03.498Z,1010.85
2018-07-19T02:07:03.520Z,1010.85
2018-07-19T02:08:03.545Z,1010.92
2018-07-19T02:09:03.570Z,1010.82
2018-07-19T02:10:03.593Z,1010.8
2018-07-19T02:11:03.618Z,1010.86
2018-07-19T02:12:03.640Z,1010.82
2018-07-19T02:13:03.665Z,1010.85
2018-07-19T02:14:03.688Z,1010.83
2018-07-19T02:15:03.714Z,1010.85
2018-07-19T02:16:03.738Z,1010.83
2018-07-19T02:17:03.762Z,1010.83
2018-07-19T02:19:03.810Z,1010.79
2018-07-19T02:20:03.834Z,1010.82
2018-07-19T02:21:03.858Z,1010.8
2018-07-19T02:22:03.882Z,1010.81
2018-07-19T02:23:03.907Z,1010.8
2018-07-19T02:24:03.930Z,1010.85
2018-07-19T02:25:03.954Z,1010.86
2018-07-19T02:26:03.978Z,1010.83
2018-07-19T02:27:04.007Z,1010.81
2018-07-19T02:28:04.027Z,1010.84
2018-07-19T02:29:04.050Z,1010.86
2018-07-19T02:30:04.078Z,1010.82
2018-07-19T02:31:04.100Z,1010.8
2018-07-19T02:32:04.122Z,1010.85
2018-07-19T02:34:04.173Z,1010.84
2018-07-19T02:35:04.200Z,1010.81
2018-07-19T02:36:04.220Z,1010.83
2018-07-19T02:37:04.243Z,1010.85
2018-07-19T02:38:04.268Z,1010.85
2018-07-19T02:39:04.292Z,1010.89
2018-07-19T02:40:04.317Z,1010.87
2018-07-19T02:41:04.340Z,1010.87
2018-07-19T02:42:04.362Z,1010.91
2018-07-19T02:43:04.387Z,1010.89
2018-07-19T02:44:04.413Z,1010.88
2018-07-19T02:45:04.437Z,1010.91
2018-07-19T02:46:04.459Z,1010.88
2018-07-19T02:47:04.483Z,1010.92
2018-07-19T02:48:04.513Z,1010.92
2018-07-19T02:49:04.532Z,1010.91
2018-07-19T02:50:04.554Z,1010.92
2018-07-19T02:51:04.582Z,1010.94
2018-07-19T02:52:04.603Z,1010.91
2018-07-19T02:53:04.627Z,1010.93
2018-07-19T02:54:04.651Z,1010.93
2018-07-19T02:55:04.674Z,1010.92
2018-07-19T02:56:04.698Z,1010.87
2018-07-19T02:57:04.723Z,1010.89
2018-07-19T02:58:04.746Z,1010.88
2018-07-19T02:59:04.771Z,1010.91
2018-07-19T03:00:04.795Z,1010.93
2018-07-19T03:01:04.818Z,1010.9
2018-07-19T03:02:04.899Z,1010.91
2018-07-19T03:03:04.867Z,1010.9
2018-07-19T03:04:04.890Z,1010.87
2018-07-19T03:06:04.942Z,1010.87
2018-07-19T03:07:04.962Z,1010.88
2018-07-19T03:08:04.986Z,1010.83
2018-07-19T03:09:05.010Z,1010.86
2018-07-19T03:10:05.038Z,1010.87
2018-07-19T03:11:05.058Z,1010.85
2018-07-19T03:12:05.081Z,1010.9
2018-07-19T03:13:05.106Z,1010.89
2018-07-19T03:14:05.130Z,1010.91
2018-07-19T03:15:05.152Z,1010.84
2018-07-19T03:16:05.177Z,1010.89
2018-07-19T03:17:05.201Z,1010.85
2018-07-19T03:18:05.229Z,1010.84
2018-07-19T03:19:05.248Z,1010.88
2018-07-19T03:20:05.274Z,1010.88
2018-07-19T03:22:05.319Z,1010.86
2018-07-19T03:23:05.344Z,1010.84
2018-07-19T03:24:05.368Z,1010.9
2018-07-19T03:25:05.392Z,1010.87
2018-07-19T03:26:05.414Z,1010.85
2018-07-19T03:27:05.439Z,1010.83
2018-07-19T03:28:05.464Z,1010.84
2018-07-19T03:29:05.488Z,1010.84
2018-07-19T03:30:05.513Z,1010.8
2018-07-19T03:31:05.614Z,1010.85
2018-07-19T03:32:05.563Z,1010.83
2018-07-19T03:33:05.583Z,1010.8
2018-07-19T03:34:05.605Z,1010.82
2018-07-19T03:35:05.630Z,1010.86
2018-07-19T03:36:05.658Z,1010.83
2018-07-19T03:38:05.701Z,1010.9
2018-07-19T03:39:05.726Z,1010.88
2018-07-19T03:40:05.811Z,1010.8
2018-07-19T03:41:05.773Z,1010.8
2018-07-19T03:42:05.798Z,1010.82
2018-07-19T03:43:05.821Z,1010.81
2018-07-19T03:44:05.845Z,1010.8
2018-07-19T03:45:05.869Z,1010.81
2018-07-19T03:46:05.896Z,1010.86
2018-07-19T03:47:05.916Z,1010.84
2018-07-19T03:48:05.939Z,1010.87
2018-07-19T03:49:05.964Z,1010.88
2018-07-19T03:50:05.994Z,1010.87
2018-07-19T03:51:06.013Z,1010.86
2018-07-19T03:52:06.040Z,1010.87
2018-07-19T03:54:06.085Z,1010.88
2018-07-19T03:55:06.113Z,1010.9
2018-07-19T03:56:06.147Z,1010.88
2018-07-19T03:57:06.156Z,1010.91
2018-07-19T03:58:06.179Z,1010.89
2018-07-19T03:59:06.203Z,1010.9
2018-07-19T04:00:06.228Z,1010.89
2018-07-19T04:01:06.251Z,1010.94
2018-07-19T04:02:06.280Z,1010.91
2018-07-19T04:03:06.299Z,1010.86
2018-07-19T04:04:06.322Z,1010.92
2018-07-19T04:05:06.349Z,1010.86
2018-07-19T04:06:06.376Z,1010.91
2018-07-19T04:07:06.396Z,1010.89
2018-07-19T04:09:06.445Z,1010.92
2018-07-19T04:10:06.468Z,1010.89
2018-07-19T04:11:06.492Z,1010.93
2018-07-19T04:12:06.516Z,1010.92
2018-07-19T04:13:06.540Z,1010.96
2018-07-19T04:14:06.565Z,1010.88
2018-07-19T04:15:06.589Z,1010.89
2018-07-19T04:16:06.615Z,1010.96
2018-07-19T04:17:06.695Z,1010.95
2018-07-19T04:18:06.660Z,1010.92
2018-07-19T04:19:06.685Z,1011.01
2018-07-19T04:20:06.709Z,1011.08
2018-07-19T04:21:06.732Z,1011.07
2018-07-19T04:22:06.757Z,1011.05
2018-07-19T04:23:06.781Z,1010.99
2018-07-19T04:24:06.810Z,1010.97
2018-07-19T04:25:06.880Z,1010.95
2018-07-19T04:26:06.846Z,1010.97
2018-07-19T04:27:06.878Z,1010.97
2018-07-19T04:28:06.900Z,1010.96
2018-07-19T04:29:06.927Z,1011.04
2018-07-19T04:30:06.950Z,1010.99
2018-07-19T04:31:06.975Z,1011.04
2018-07-19T04:32:06.998Z,1011.06
2018-07-19T04:33:07.024Z,1011.07
2018-07-19T04:34:07.048Z,1011.09
2018-07-19T04:35:07.072Z,1011.1
2018-07-19T04:36:07.096Z,1011.06
2018-07-19T04:37:07.121Z,1011.04
2018-07-19T04:38:07.176Z,1011.02
2018-07-19T04:39:07.168Z,1011.04
2018-07-19T04:41:07.218Z,1011.09
2018-07-19T04:42:07.243Z,1011.11
2018-07-19T04:43:07.265Z,1011.14
2018-07-19T04:44:07.291Z,1011.22
2018-07-19T04:45:07.316Z,1011.24
2018-07-19T04:46:07.341Z,1011.28
2018-07-19T04:47:07.365Z,1011.24
2018-07-19T04:48:07.430Z,1011.19
2018-07-19T04:49:07.415Z,1011.29
2018-07-19T04:50:07.437Z,1011.34
2018-07-19T04:51:07.464Z,1011.35
2018-07-19T04:52:07.490Z,1011.37
2018-07-19T04:53:07.515Z,1011.4
2018-07-19T04:54:07.540Z,1011.38
2018-07-19T04:55:07.567Z,1011.43
2018-07-19T04:57:07.620Z,1011.4
2018-07-19T04:58:07.645Z,1011.48
2018-07-19T04:59:07.672Z,1011.45
2018-07-19T05:00:07.699Z,1011.53
2018-07-19T05:01:07.733Z,1011.52
2018-07-19T05:02:07.770Z,1011.58
2018-07-19T05:03:07.780Z,1011.63
2018-07-19T05:04:07.808Z,1011.64
2018-07-19T05:05:07.834Z,1011.66
2018-07-19T05:06:07.862Z,1011.68
2018-07-19T05:07:07.896Z,1011.69
2018-07-19T05:08:07.921Z,1011.66
2018-07-19T05:09:07.949Z,1011.8
2018-07-19T05:10:07.979Z,1011.82
2018-07-19T05:11:08.010Z,1011.83
2018-07-19T05:13:08.064Z,1011.92
2018-07-19T05:14:08.121Z,1011.93
2018-07-19T05:15:08.125Z,1011.95
2018-07-19T05:16:08.154Z,1011.99
2018-07-19T05:17:08.185Z,1012.01
2018-07-19T05:18:08.215Z,1011.95
2018-07-19T05:19:08.246Z,1011.94
2018-07-19T05:20:08.276Z,1011.93
2018-07-19T05:21:08.306Z,1011.89
2018-07-19T05:22:08.337Z,1011.95
2018-07-19T05:23:08.400Z,1011.89
2018-07-19T05:24:08.398Z,1011.89
2018-07-19T05:25:08.429Z,1011.91
2018-07-19T05:26:08.459Z,1011.88
2018-07-19T05:27:08.489Z,1011.93
2018-07-19T05:29:08.552Z,1011.92
2018-07-19T05:30:08.583Z,1011.94
2018-07-19T05:31:08.615Z,1011.93
2018-07-19T05:32:08.647Z,1012.01
2018-07-19T05:33:08.676Z,1012.01
2018-07-19T05:34:08.706Z,1011.99
2018-07-19T05:35:08.741Z,1012.01
2018-07-19T05:36:08.773Z,1011.99
2018-07-19T05:37:08.802Z,1012.06
2018-07-19T05:38:08.832Z,1012.13
2018-07-19T05:39:08.863Z,1012.11
2018-07-19T05:40:08.897Z,1012.12
2018-07-19T05:41:08.931Z,1012.12
2018-07-19T05:42:09.022Z,1012.11
2018-07-19T05:44:09.026Z,1012.17
2018-07-19T05:45:09.056Z,1012.18
2018-07-19T05:46:09.091Z,1012.22
2018-07-19T05:47:09.123Z,1012.13
2018-07-19T05:48:09.157Z,1012.08
2018-07-19T05:49:09.188Z,1012.17
2018-07-19T05:50:09.220Z,1012.16
2018-07-19T05:51:09.254Z,1012.16
2018-07-19T05:52:09.287Z,1011.69
2018-07-19T05:53:09.322Z,1012.19
2018-07-19T05:54:09.353Z,1012.19
2018-07-19T05:55:09.386Z,1012.13
2018-07-19T05:56:09.420Z,1012.15
2018-07-19T05:57:09.452Z,1011.93
2018-07-19T05:58:09.541Z,1011.68
2018-07-19T05:59:09.518Z,1011.62
2018-07-19T06:00:09.553Z,1011.94
2018-07-19T06:01:09.582Z,1011.87
2018-07-19T06:02:09.616Z,1011.67
2018-07-19T06:03:09.647Z,1011.69
2018-07-19T06:04:09.680Z,1012
2018-07-19T06:05:09.712Z,1011.79
2018-07-19T06:06:09.770Z,1012.11
2018-07-19T06:07:09.778Z,1012.07
2018-07-19T06:08:09.807Z,1012
2018-07-19T06:09:09.842Z,1012.05
2018-07-19T06:10:09.872Z,1012.06
2018-07-19T06:11:09.905Z,1011.98
2018-07-19T06:12:09.934Z,1012.03
2018-07-19T06:13:09.971Z,1012
2018-07-19T06:14:10.000Z,1012.04
2018-07-19T06:16:10.076Z,1012.05
2018-07-19T06:17:10.100Z,1011.89
2018-07-19T06:18:10.132Z,1011.8
2018-07-19T06:19:10.165Z,1011.89
2018-07-19T06:20:10.199Z,1011.82
2018-07-19T06:21:10.231Z,1011.77
2018-07-19T06:22:10.264Z,1011.75
2018-07-19T06:23:10.305Z,1011.87
2018-07-19T06:24:10.331Z,1011.75
2018-07-19T06:25:10.413Z,1011.75
2018-07-19T06:26:10.396Z,1012.3
2018-07-19T06:27:10.428Z,1012.34
2018-07-19T06:28:10.461Z,1012.34
2018-07-19T06:29:10.495Z,1012.34
2018-07-19T06:30:10.527Z,1012.28
2018-07-19T06:32:10.593Z,1012.31
2018-07-19T06:33:10.626Z,1012.37
2018-07-19T06:34:10.659Z,1012.37
2018-07-19T06:35:10.693Z,1011.67
2018-07-19T06:36:10.725Z,1011.71
2018-07-19T06:37:10.760Z,1011.73
2018-07-19T06:38:10.791Z,1011.63
2018-07-19T06:39:10.825Z,1011.68
2018-07-19T06:40:10.856Z,1011.66
2018-07-19T06:41:10.896Z,1011.64
2018-07-19T06:42:11.023Z,1011.68
2018-07-19T06:43:10.956Z,1011.67
2018-07-19T06:44:10.987Z,1011.58
2018-07-19T06:45:11.019Z,1011.61
2018-07-19T06:46:11.050Z,1011.61
2018-07-19T06:48:11.113Z,1011.61
2018-07-19T06:49:11.147Z,1011.59
2018-07-19T06:50:11.175Z,1011.61
2018-07-19T06:51:11.204Z,1011.65
2018-07-19T06:52:11.282Z,1011.64
2018-07-19T06:53:11.264Z,1011.68
2018-07-19T06:54:11.294Z,1011.66
2018-07-19T06:55:11.325Z,1011.65
2018-07-19T06:56:11.353Z,1011.62
2018-07-19T06:57:11.383Z,1011.66
2018-07-19T06:58:11.411Z,1011.64
2018-07-19T06:59:11.442Z,1011.68
2018-07-19T07:00:11.470Z,1011.64
2018-07-19T07:01:11.499Z,1011.66
2018-07-19T07:02:11.530Z,1011.64
2018-07-19T07:04:11.585Z,1011.62
2018-07-19T07:05:11.613Z,1011.66
2018-07-19T07:06:11.641Z,1011.68
2018-07-19T07:07:11.678Z,1011.7
2018-07-19T07:08:11.698Z,1011.67
2018-07-19T07:09:11.826Z,1011.72
2018-07-19T07:10:11.753Z,1011.69
2018-07-19T07:11:11.782Z,1011.66
2018-07-19T07:12:11.809Z,1011.71
2018-07-19T07:13:11.837Z,1011.69
2018-07-19T07:14:11.865Z,1011.74
2018-07-19T07:15:11.892Z,1011.76
2018-07-19T07:16:11.920Z,1011.76
2018-07-19T07:17:11.948Z,1011.76
2018-07-19T07:19:12.002Z,1011.78
2018-07-19T07:20:12.029Z,1011.75
2018-07-19T07:21:12.070Z,1011.73
2018-07-19T07:22:12.084Z,1011.8
2018-07-19T07:23:12.112Z,1011.79
2018-07-19T07:24:12.136Z,1011.8
2018-07-19T07:25:12.167Z,1011.74
2018-07-19T07:26:12.192Z,1011.77
2018-07-19T07:27:12.217Z,1011.77
2018-07-19T07:28:12.292Z,1011.8
2018-07-19T07:29:12.273Z,1011.78
2018-07-19T07:30:12.299Z,1011.79
2018-07-19T07:31:12.326Z,1011.81
2018-07-19T07:32:12.354Z,1011.79
2018-07-19T07:33:12.381Z,1011.85
2018-07-19T07:34:12.438Z,1011.82
2018-07-19T07:35:12.433Z,1011.82
2018-07-19T07:36:12.460Z,1011.85
2018-07-19T07:37:12.487Z,1011.81
2018-07-19T07:38:12.516Z,1011.84
2018-07-19T07:39:12.539Z,1011.84
2018-07-19T07:40:12.566Z,1011.83
2018-07-19T07:41:12.593Z,1011.87
2018-07-19T07:42:12.618Z,1011.9
2018-07-19T07:43:12.647Z,1011.83
2018-07-19T07:44:12.714Z,1011.84
2018-07-19T07:45:12.701Z,1011.84
2018-07-19T07:46:12.723Z,1011.86
2018-07-19T07:47:12.753Z,1011.89
2018-07-19T07:48:12.778Z,1011.86
2018-07-19T07:49:12.803Z,1011.88
2018-07-19T07:51:12.855Z,1011.83
2018-07-19T07:52:12.882Z,1011.86
2018-07-19T07:53:12.909Z,1011.89
2018-07-19T07:54:12.993Z,1011.9
2018-07-19T07:55:12.963Z,1011.91
2018-07-19T07:56:12.989Z,1011.91
2018-07-19T07:57:13.015Z,1011.92
2018-07-19T07:58:13.042Z,1011.87
2018-07-19T07:59:13.097Z,1011.92
2018-07-19T08:00:13.093Z,1011.93
2018-07-19T08:01:13.220Z,1011.92
2018-07-19T08:02:13.146Z,1011.94
2018-07-19T08:03:13.173Z,1011.9
2018-07-19T08:04:13.198Z,1011.91
2018-07-19T08:05:13.225Z,1011.91
2018-07-19T08:07:13.278Z,1011.93
2018-07-19T08:08:13.302Z,1011.93
2018-07-19T08:09:13.328Z,1011.91
2018-07-19T08:10:13.354Z,1011.99
2018-07-19T08:11:13.383Z,1011.94
2018-07-19T08:12:13.407Z,1011.93
2018-07-19T08:13:13.433Z,1011.97
2018-07-19T08:14:13.459Z,1011.95
2018-07-19T08:15:13.484Z,1011.94
2018-07-19T08:16:13.510Z,1012.02
2018-07-19T08:17:13.536Z,1012.04
2018-07-19T08:18:13.562Z,1012.02
2018-07-19T08:19:13.587Z,1012.05
2018-07-19T08:20:13.613Z,1012.02
2018-07-19T08:21:13.639Z,1012.07
2018-07-19T08:23:13.692Z,1011.99
2018-07-19T08:24:13.717Z,1012
2018-07-19T08:25:13.743Z,1011.96
2018-07-19T08:26:13.770Z,1011.98
2018-07-19T08:27:13.794Z,1012
2018-07-19T08:28:13.821Z,1011.99
2018-07-19T08:29:13.846Z,1012.02
2018-07-19T08:30:13.873Z,1012
2018-07-19T08:31:13.896Z,1012
2018-07-19T08:32:13.950Z,1012.03
2018-07-19T08:33:13.951Z,1012.05
2018-07-19T08:34:13.974Z,1012.03
2018-07-19T08:35:14.000Z,1012.06
2018-07-19T08:36:14.080Z,1012.06
2018-07-19T08:37:14.051Z,1012.06
2018-07-19T08:39:14.101Z,1012.02
2018-07-19T08:40:14.129Z,1012.04
2018-07-19T08:41:14.153Z,1012.01
2018-07-19T08:42:14.180Z,1012.03
2018-07-19T08:43:14.205Z,1012.04
2018-07-19T08:44:14.233Z,1012.04
2018-07-19T08:45:14.255Z,1012.1
2018-07-19T08:46:14.282Z,1012.07
2018-07-19T08:47:14.309Z,1012.05
2018-07-19T08:48:14.332Z,1012.13
2018-07-19T08:49:14.358Z,1012.09
2018-07-19T08:50:14.384Z,1012.12
2018-07-19T08:51:14.409Z,1012.11
2018-07-19T08:52:14.436Z,1012.1
2018-07-19T08:54:14.491Z,1012.13
2018-07-19T08:55:14.514Z,1012.14
2018-07-19T08:56:14.538Z,1012.12
2018-07-19T08:57:14.564Z,1012.1
2018-07-19T08:58:14.593Z,1012.12
2018-07-19T08:59:14.615Z,1012.08
2018-07-19T09:00:14.641Z,1012.09
2018-07-19T09:01:14.666Z,1012.14
2018-07-19T09:02:14.750Z,1012.16
2018-07-19T09:03:14.717Z,1012.14
2018-07-19T09:04:14.744Z,1012.15
2018-07-19T09:05:14.768Z,1012.15
2018-07-19T09:06:14.793Z,1012.15
2018-07-19T09:07:14.819Z,1012.15
2018-07-19T09:08:14.853Z,1012.14
2018-07-19T09:09:14.879Z,1012.14
2018-07-19T09:10:14.897Z,1012.15
2018-07-19T09:11:14.921Z,1012.12
2018-07-19T09:12:14.947Z,1012.18
2018-07-19T09:13:14.970Z,1012.15
2018-07-19T09:14:14.997Z,1012.15
2018-07-19T09:15:15.024Z,1012.18
2018-07-19T09:16:15.052Z,1012.11
2018-07-19T09:17:15.079Z,1012.14
2018-07-19T09:18:15.098Z,1012.17
2018-07-19T09:19:15.124Z,1012.14
2018-07-19T09:20:15.251Z,1012.19
2018-07-19T09:21:15.175Z,1012.14
2018-07-19T09:22:15.201Z,1012.19
2018-07-19T09:23:15.230Z,1012.24
2018-07-19T09:24:15.252Z,1012.18
2018-07-19T09:26:15.303Z,1012.21
2018-07-19T09:27:15.333Z,1012.21
2018-07-19T09:28:15.354Z,1012.17
2018-07-19T09:29:15.380Z,1012.19
2018-07-19T09:30:15.406Z,1012.23
2018-07-19T09:31:15.431Z,1012.21
2018-07-19T09:32:15.455Z,1012.24
2018-07-19T09:33:15.481Z,1012.19
2018-07-19T09:34:15.507Z,1012.19
2018-07-19T09:35:15.532Z,1012.24
2018-07-19T09:36:15.557Z,1012.25
2018-07-19T09:37:15.584Z,1012.21
2018-07-19T09:38:15.622Z,1012.24
2018-07-19T09:39:15.636Z,1012.23
2018-07-19T09:40:15.665Z,1012.22
2018-07-19T09:42:15.712Z,1012.21
2018-07-19T09:43:15.736Z,1012.23
2018-07-19T09:44:15.761Z,1012.25
2018-07-19T09:45:15.787Z,1012.18
2018-07-19T09:46:15.812Z,1012.22
2018-07-19T09:47:15.838Z,1012.21
2018-07-19T09:48:15.864Z,1012.28
2018-07-19T09:49:15.889Z,1012.19
2018-07-19T09:50:15.914Z,1012.27
2018-07-19T09:51:15.941Z,1012.32
2018-07-19T09:52:15.966Z,1012.25
2018-07-19T09:53:15.992Z,1012.28
2018-07-19T09:54:16.020Z,1012.33
2018-07-19T09:55:16.044Z,1012.26
2018-07-19T09:56:16.069Z,1012.29
2018-07-19T09:58:16.119Z,1012.32
2018-07-19T09:59:16.146Z,1012.33
2018-07-19T10:00:16.171Z,1012.31
2018-07-19T10:01:16.196Z,1012.35
2018-07-19T10:02:16.221Z,1012.36
2018-07-19T10:03:16.248Z,1012.35
2018-07-19T10:04:16.274Z,1012.33
2018-07-19T10:05:16.299Z,1012.3
2018-07-19T10:06:16.324Z,1012.37
2018-07-19T10:07:16.351Z,1012.35
2018-07-19T10:08:16.373Z,1012.32
2018-07-19T10:09:16.401Z,1012.35
2018-07-19T10:10:16.509Z,1012.38
2018-07-19T10:11:16.453Z,1012.36
2018-07-19T10:12:16.478Z,1012.38
2018-07-19T10:14:16.530Z,1012.4
2018-07-19T10:15:16.556Z,1012.36
2018-07-19T10:16:16.580Z,1012.41
2018-07-19T10:17:16.622Z,1012.4
2018-07-19T10:18:16.632Z,1012.43
2018-07-19T10:19:16.657Z,1012.42
2018-07-19T10:20:16.682Z,1012.44
2018-07-19T10:21:16.710Z,1012.44
2018-07-19T10:22:16.735Z,1012.42
2018-07-19T10:23:16.761Z,1012.42
2018-07-19T10:24:16.833Z,1012.44
2018-07-19T10:25:16.813Z,1012.43
2018-07-19T10:26:16.839Z,1012.43
2018-07-19T10:27:16.865Z,1012.39
2018-07-19T10:29:16.917Z,1012.44
2018-07-19T10:30:16.949Z,1012.41
2018-07-19T10:31:16.968Z,1012.45
2018-07-19T10:32:17.043Z,1012.48
2018-07-19T10:33:17.021Z,1012.44
2018-07-19T10:34:17.052Z,1012.45
2018-07-19T10:35:17.072Z,1012.38
2018-07-19T10:36:17.101Z,1012.46
2018-07-19T10:37:17.127Z,1012.45
2018-07-19T10:38:17.171Z,1012.42
2018-07-19T10:39:17.174Z,1012.44
2018-07-19T10:40:17.202Z,1012.44
2018-07-19T10:41:17.227Z,1012.48
2018-07-19T10:42:17.253Z,1012.46
2018-07-19T10:43:17.281Z,1012.43
2018-07-19T10:44:17.319Z,1012.42
2018-07-19T10:45:17.331Z,1012.47
2018-07-19T10:46:17.357Z,1012.45
2018-07-19T10:47:17.383Z,1012.44
2018-07-19T10:48:17.411Z,1012.43
2018-07-19T10:49:17.435Z,1012.46
2018-07-19T10:50:17.461Z,1012.43
2018-07-19T10:51:17.488Z,1012.51
2018-07-19T10:52:17.515Z,1012.45
2018-07-19T10:53:17.549Z,1012.45
2018-07-19T10:54:17.565Z,1012.47
2018-07-19T10:55:17.592Z,1012.47
2018-07-19T10:56:17.621Z,1012.47
2018-07-19T10:57:17.651Z,1012.45
2018-07-19T10:58:17.670Z,1012.42
2018-07-19T10:59:17.695Z,1012.47
2018-07-19T11:01:17.748Z,1012.49
2018-07-19T11:02:17.774Z,1012.47
2018-07-19T11:03:17.800Z,1012.48
2018-07-19T11:04:17.824Z,1012.5
2018-07-19T11:05:17.856Z,1012.46
2018-07-19T11:06:17.879Z,1012.47
2018-07-19T11:07:17.909Z,1012.42
2018-07-19T11:08:17.929Z,1012.44
2018-07-19T11:09:17.959Z,1012.44
2018-07-19T11:10:17.986Z,1012.42
2018-07-19T11:11:18.012Z,1012.46
2018-07-19T11:12:18.035Z,1012.47
2018-07-19T11:13:18.061Z,1012.45
2018-07-19T11:14:18.090Z,1012.46
2018-07-19T11:15:18.116Z,1012.45
2018-07-19T11:17:18.170Z,1012.44
2018-07-19T11:18:18.192Z,1012.48
2018-07-19T11:19:18.219Z,1012.46
2018-07-19T11:20:18.244Z,1012.49
2018-07-19T11:21:18.270Z,1012.48
2018-07-19T11:22:18.300Z,1012.4
2018-07-19T11:23:18.323Z,1012.5
2018-07-19T11:24:18.349Z,1012.39
2018-07-19T11:25:18.374Z,1012.41
2018-07-19T11:26:18.399Z,1012.41
2018-07-19T11:27:18.427Z,1012.43
2018-07-19T11:28:18.466Z,1012.48
2018-07-19T11:29:18.478Z,1012.42
2018-07-19T11:30:18.504Z,1012.49
2018-07-19T11:31:18.530Z,1012.48
2018-07-19T11:33:18.581Z,1012.48
2018-07-19T11:34:18.608Z,1012.51
2018-07-19T11:35:18.661Z,1012.45
2018-07-19T11:36:18.662Z,1012.46
2018-07-19T11:37:18.690Z,1012.43
2018-07-19T11:38:18.714Z,1012.46
2018-07-19T11:39:18.737Z,1012.43
2018-07-19T11:40:18.764Z,1012.43
2018-07-19T11:41:18.789Z,1012.46
2018-07-19T11:42:18.816Z,1012.46
2018-07-19T11:43:18.843Z,1012.43
2018-07-19T11:44:18.867Z,1012.43
2018-07-19T11:45:18.896Z,1012.42
2018-07-19T11:46:18.919Z,1012.44
2018-07-19T11:47:18.943Z,1012.43
2018-07-19T11:49:18.997Z,1012.43
2018-07-19T11:50:19.023Z,1012.45
2018-07-19T11:51:19.050Z,1012.46
2018-07-19T11:52:19.073Z,1012.47
2018-07-19T11:53:19.107Z,1012.44
2018-07-19T11:54:19.124Z,1012.47
2018-07-19T11:55:19.153Z,1012.48
2018-07-19T11:56:19.177Z,1012.54
2018-07-19T11:57:19.203Z,1012.49
2018-07-19T11:58:19.231Z,1012.55
2018-07-19T11:59:19.258Z,1012.49
2018-07-19T12:00:19.279Z,1012.49
2018-07-19T12:01:19.306Z,1012.49
2018-07-19T12:02:19.332Z,1012.49
2018-07-19T12:04:19.385Z,1012.49
2018-07-19T12:05:19.413Z,1012.51
2018-07-19T12:06:19.438Z,1012.48
2018-07-19T12:07:19.467Z,1012.54
2018-07-19T12:08:19.489Z,1012.54
2018-07-19T12:09:19.512Z,1012.51
2018-07-19T12:10:19.539Z,1012.54
2018-07-19T12:11:19.565Z,1012.55
2018-07-19T12:12:19.594Z,1012.53
2018-07-19T12:13:19.616Z,1012.51
2018-07-19T12:14:19.651Z,1012.51
2018-07-19T12:15:19.669Z,1012.52
2018-07-19T12:16:19.707Z,1012.53
2018-07-19T12:17:19.720Z,1012.54
2018-07-19T12:18:19.748Z,1012.51
2018-07-19T12:19:19.771Z,1012.49
2018-07-19T12:20:19.797Z,1012.52
2018-07-19T12:21:19.826Z,1012.56
2018-07-19T12:22:19.849Z,1012.49
2018-07-19T12:23:19.874Z,1012.51
2018-07-19T12:24:19.951Z,1012.56
2018-07-19T12:25:19.927Z,1012.52
2018-07-19T12:26:19.953Z,1012.55
2018-07-19T12:27:19.978Z,1012.55
2018-07-19T12:28:20.004Z,1012.58
2018-07-19T12:29:20.031Z,1012.57
2018-07-19T12:30:20.055Z,1012.55
2018-07-19T12:31:20.162Z,1012.54
2018-07-19T12:32:20.109Z,1012.54
2018-07-19T12:33:20.135Z,1012.56
2018-07-19T12:34:20.158Z,1012.53
2018-07-19T12:36:20.210Z,1012.54
2018-07-19T12:37:20.235Z,1012.55
2018-07-19T12:38:20.260Z,1012.54
2018-07-19T12:39:20.288Z,1012.55
2018-07-19T12:40:20.317Z,1012.54
2018-07-19T12:41:20.340Z,1012.51
2018-07-19T12:42:20.365Z,1012.51
2018-07-19T12:43:20.391Z,1012.49
2018-07-19T12:44:20.417Z,1012.49
2018-07-19T12:45:20.442Z,1012.5
2018-07-19T12:46:20.468Z,1012.49
2018-07-19T12:47:20.493Z,1012.47